createdAt,value
2019-05-11T00:01:26.758Z,9.38
2019-05-11T00:03:58.337Z,9.43
2019-05-11T00:06:30.830Z,9.30
2019-05-11T00:09:02.347Z,8.60
2019-05-11T00:11:33.884Z,7.97
2019-05-11T00:14:05.315Z,8.08
2019-05-11T00:16:36.827Z,7.92
2019-05-11T00:19:08.156Z,8.08
2019-05-11T00:21:40.915Z,8.25
2019-05-11T00:24:12.302Z,8.80
2019-05-11T00:26:43.750Z,7.65
2019-05-11T00:29:15.243Z,7.95
2019-05-11T00:31:46.764Z,7.95
2019-05-11T00:34:18.547Z,8.63
2019-05-11T00:36:49.959Z,8.23
2019-05-11T00:39:21.758Z,8.43
2019-05-11T00:41:53.259Z,9.48
2019-05-11T00:44:24.726Z,9.50
2019-05-11T00:46:56.176Z,8.93
2019-05-11T00:49:27.666Z,9.43
2019-05-11T00:51:59.157Z,9.10
2019-05-11T00:54:30.665Z,10.15
2019-05-11T00:57:01.950Z,9.85
2019-05-11T00:59:33.452Z,9.55
2019-05-11T01:02:04.863Z,9.33
2019-05-11T01:04:36.287Z,9.58
2019-05-11T01:07:07.773Z,9.55
2019-05-11T01:09:39.310Z,9.60
2019-05-11T01:12:10.775Z,9.60
2019-05-11T01:14:42.267Z,10.35
2019-05-11T01:17:13.701Z,10.25
2019-05-11T01:19:45.163Z,10.23
2019-05-11T01:22:16.574Z,9.80
2019-05-11T01:24:48.083Z,11.15
2019-05-11T01:27:19.472Z,10.45
2019-05-11T01:29:50.959Z,10.85
2019-05-11T01:32:22.475Z,10.90
2019-05-11T01:34:54.955Z,10.58
2019-05-11T01:37:26.405Z,10.72
2019-05-11T01:39:57.892Z,11.93
2019-05-11T01:42:29.306Z,11.00
2019-05-11T01:45:00.805Z,12.18
2019-05-11T01:47:32.308Z,12.00
2019-05-11T01:50:04.158Z,13.10
2019-05-11T01:52:35.533Z,12.25
2019-05-11T01:55:08.115Z,12.98
2019-05-11T01:57:39.536Z,11.88
2019-05-11T02:00:11.575Z,11.83
2019-05-11T02:02:43.046Z,12.50
2019-05-11T02:05:29.397Z,12.70
2019-05-11T02:08:02.153Z,12.25
2019-05-11T02:10:33.530Z,12.33
2019-05-11T02:13:04.916Z,13.18
2019-05-11T02:15:36.392Z,12.35
2019-05-11T02:18:07.738Z,12.58
2019-05-11T02:20:39.097Z,12.98
2019-05-11T02:23:10.520Z,13.45
2019-05-11T02:25:41.967Z,16.97
2019-05-11T02:28:13.311Z,15.30
2019-05-11T02:30:44.768Z,14.58
2019-05-11T02:33:16.114Z,14.43
2019-05-11T02:35:47.490Z,14.43
2019-05-11T02:38:18.861Z,13.62
2019-05-11T02:40:50.259Z,15.75
2019-05-11T02:43:21.718Z,14.98
2019-05-11T02:45:53.091Z,15.70
2019-05-11T02:48:24.507Z,13.25
2019-05-11T02:50:57.001Z,12.28
2019-05-11T02:53:29.786Z,12.50
2019-05-11T02:56:02.156Z,12.75
2019-05-11T02:58:33.558Z,12.45
2019-05-11T03:01:05.078Z,11.93
2019-05-11T03:03:36.603Z,11.60
2019-05-11T03:06:08.065Z,11.10
2019-05-11T03:08:39.367Z,10.45
2019-05-11T03:11:10.868Z,11.22
2019-05-11T03:13:42.398Z,11.70
2019-05-11T03:16:13.825Z,11.73
2019-05-11T03:18:46.151Z,12.37
2019-05-11T03:21:18.721Z,10.90
2019-05-11T03:23:50.245Z,11.03
2019-05-11T03:26:21.735Z,10.05
2019-05-11T03:28:53.235Z,10.60
2019-05-11T03:31:24.771Z,12.28
2019-05-11T03:33:56.421Z,11.93
2019-05-11T03:36:27.931Z,9.65
2019-05-11T03:38:59.336Z,11.10
2019-05-11T03:41:30.944Z,11.33
2019-05-11T03:44:02.325Z,11.60
2019-05-11T03:46:34.857Z,14.10
2019-05-11T03:49:06.276Z,13.65
2019-05-11T03:51:37.732Z,12.43
2019-05-11T03:54:09.093Z,12.20
2019-05-11T03:56:40.547Z,13.05
2019-05-11T03:59:11.955Z,13.58
2019-05-11T04:01:43.453Z,13.62
2019-05-11T04:04:16.585Z,14.65
2019-05-11T04:06:47.998Z,13.78
2019-05-11T04:09:19.475Z,12.80
2019-05-11T04:11:51.003Z,13.00
2019-05-11T04:14:22.388Z,13.08
2019-05-11T04:16:53.897Z,13.40
2019-05-11T04:19:25.408Z,12.45
2019-05-11T04:21:56.892Z,12.45
2019-05-11T04:24:28.317Z,12.90
2019-05-11T04:26:59.714Z,13.62
2019-05-11T04:29:31.191Z,12.33
2019-05-11T04:32:02.790Z,11.95
2019-05-11T04:34:34.407Z,12.53
2019-05-11T04:37:05.843Z,11.85
2019-05-11T04:39:37.289Z,15.13
2019-05-11T04:42:08.789Z,11.35
2019-05-11T04:44:40.197Z,11.78
2019-05-11T04:47:11.704Z,12.03
2019-05-11T04:49:43.052Z,9.85
2019-05-11T04:52:14.582Z,9.75
2019-05-11T04:54:46.311Z,10.48
2019-05-11T04:57:17.724Z,8.55
2019-05-11T04:59:49.135Z,8.58
2019-05-11T05:02:20.463Z,8.78
2019-05-11T05:04:51.996Z,9.20
2019-05-11T05:07:23.501Z,9.10
2019-05-11T05:09:55.785Z,9.90
2019-05-11T05:12:27.303Z,9.70
2019-05-11T05:14:58.648Z,8.85
2019-05-11T05:17:30.197Z,9.03
2019-05-11T05:20:01.645Z,8.80
2019-05-11T05:22:33.326Z,8.75
2019-05-11T05:25:06.433Z,9.20
2019-05-11T05:27:37.836Z,8.00
2019-05-11T05:30:09.488Z,9.20
2019-05-11T05:32:40.944Z,10.95
2019-05-11T05:35:12.445Z,10.98
2019-05-11T05:37:43.890Z,12.40
2019-05-11T05:40:15.363Z,12.00
2019-05-11T05:42:46.892Z,14.23
2019-05-11T05:45:18.474Z,13.45
2019-05-11T05:47:49.908Z,15.00
2019-05-11T05:50:21.357Z,15.35
2019-05-11T05:52:52.856Z,14.90
2019-05-11T05:55:24.473Z,9.38
2019-05-11T05:57:56.055Z,9.70
2019-05-11T06:00:27.540Z,13.45
2019-05-11T06:02:58.999Z,14.55
2019-05-11T06:05:30.474Z,11.55
2019-05-11T06:08:01.961Z,9.33
2019-05-11T06:10:33.390Z,11.33
2019-05-11T06:13:04.823Z,8.30
2019-05-11T06:15:36.405Z,8.38
2019-05-11T06:18:07.803Z,7.80
2019-05-11T06:20:39.137Z,6.85
2019-05-11T06:23:10.660Z,8.03
2019-05-11T06:25:42.177Z,6.75
2019-05-11T06:28:13.668Z,7.25
2019-05-11T06:30:45.081Z,6.87
2019-05-11T06:33:16.856Z,7.25
2019-05-11T06:35:48.385Z,4.42
2019-05-11T06:38:19.754Z,3.35
2019-05-11T06:40:51.103Z,4.30
2019-05-11T06:43:22.513Z,3.40
2019-05-11T06:45:53.794Z,2.70
2019-05-11T06:48:25.275Z,2.67
2019-05-11T06:50:56.569Z,3.02
2019-05-11T06:53:27.961Z,2.85
2019-05-11T06:55:59.260Z,2.62
2019-05-11T06:58:30.662Z,3.42
2019-05-11T07:01:01.966Z,2.95
2019-05-11T07:03:33.403Z,2.70
2019-05-11T07:06:04.651Z,2.33
2019-05-11T07:08:36.035Z,2.83
2019-05-11T07:11:07.424Z,6.40
2019-05-11T07:13:38.840Z,3.20
2019-05-11T07:16:10.212Z,3.55
2019-05-11T07:18:41.590Z,2.47
2019-05-11T07:21:12.955Z,2.80
2019-05-11T07:23:44.534Z,2.45
2019-05-11T07:26:16.603Z,2.47
2019-05-11T07:28:48.064Z,2.62
2019-05-11T07:31:19.366Z,2.55
2019-05-11T07:33:50.832Z,2.60
2019-05-11T07:36:22.328Z,2.70
2019-05-11T07:38:53.755Z,2.70
2019-05-11T07:41:25.037Z,2.20
2019-05-11T07:43:58.770Z,2.35
2019-05-11T07:46:29.245Z,2.60
2019-05-11T07:49:00.663Z,3.17
2019-05-11T07:51:31.996Z,2.27
2019-05-11T07:54:03.382Z,2.30
2019-05-11T07:56:35.796Z,2.27
2019-05-11T07:59:07.970Z,2.45
2019-05-11T08:01:39.395Z,2.30
2019-05-11T08:04:10.811Z,2.70
2019-05-11T08:06:42.206Z,2.50
2019-05-11T08:09:13.679Z,2.12
2019-05-11T08:11:44.993Z,2.15
2019-05-11T08:14:18.295Z,2.25
2019-05-11T08:16:49.321Z,2.20
2019-05-11T08:19:20.722Z,2.20
2019-05-11T08:21:53.073Z,2.30
2019-05-11T08:24:24.460Z,2.67
2019-05-11T08:26:58.244Z,1.87
2019-05-11T08:29:29.153Z,3.27
2019-05-11T08:32:00.551Z,2.15
2019-05-11T08:34:31.968Z,2.58
2019-05-11T08:37:03.312Z,4.20
2019-05-11T08:39:34.783Z,2.92
2019-05-11T08:42:08.529Z,2.52
2019-05-11T08:44:39.905Z,2.35
2019-05-11T08:47:11.343Z,2.27
2019-05-11T08:49:42.744Z,2.90
2019-05-11T08:52:14.033Z,2.85
2019-05-11T08:54:45.464Z,3.83
2019-05-11T08:57:17.987Z,3.25
2019-05-11T08:59:49.540Z,3.67
2019-05-11T09:02:20.950Z,3.02
2019-05-11T09:04:52.555Z,2.50
2019-05-11T09:07:23.980Z,2.55
2019-05-11T09:09:55.284Z,4.12
2019-05-11T09:12:28.855Z,2.60
2019-05-11T09:14:59.783Z,4.22
2019-05-11T09:17:31.110Z,3.30
2019-05-11T09:20:04.205Z,3.02
2019-05-11T09:22:37.957Z,3.37
2019-05-11T09:25:09.027Z,3.65
2019-05-11T09:27:43.349Z,3.80
2019-05-11T09:30:14.313Z,3.33
2019-05-11T09:32:47.817Z,3.22
2019-05-11T09:35:19.152Z,2.80
2019-05-11T09:37:50.983Z,3.22
2019-05-11T09:40:22.334Z,3.05
2019-05-11T09:42:53.664Z,3.22
2019-05-11T09:45:25.101Z,3.30
2019-05-11T09:47:58.269Z,3.87
2019-05-11T09:50:29.462Z,3.60
2019-05-11T09:53:00.803Z,3.15
2019-05-11T09:55:33.313Z,5.97
2019-05-11T09:58:04.726Z,3.72
2019-05-11T10:00:38.653Z,3.62
2019-05-11T10:03:09.341Z,3.72
2019-05-11T10:05:40.656Z,4.15
2019-05-11T10:08:12.056Z,4.25
2019-05-11T10:10:43.465Z,3.75
2019-05-11T10:13:14.755Z,4.60
2019-05-11T10:16:00.896Z,3.98
2019-05-11T10:18:19.709Z,5.72
2019-05-11T10:20:51.208Z,5.15
2019-05-11T10:23:22.540Z,5.53
2019-05-11T10:25:53.908Z,5.45
2019-05-11T10:28:25.258Z,5.95
2019-05-11T10:30:57.872Z,6.55
2019-05-11T10:33:29.449Z,6.65
2019-05-11T10:36:03.137Z,7.05
2019-05-11T10:38:34.274Z,6.97
2019-05-11T10:41:08.529Z,7.65
2019-05-11T10:43:39.138Z,7.95
2019-05-11T10:46:19.614Z,8.50
2019-05-11T10:48:43.764Z,8.48
2019-05-11T10:51:15.353Z,9.53
2019-05-11T10:53:49.542Z,9.33
2019-05-11T10:56:19.914Z,9.30
2019-05-11T10:58:51.302Z,10.13
2019-05-11T11:01:22.878Z,10.20
2019-05-11T11:03:54.314Z,12.63
2019-05-11T11:06:28.014Z,10.65
2019-05-11T11:08:59.049Z,10.15
2019-05-11T11:11:30.650Z,11.30
2019-05-11T11:14:02.149Z,11.80
2019-05-11T11:16:39.331Z,10.25
2019-05-11T11:19:07.648Z,10.10
2019-05-11T11:21:39.303Z,10.93
2019-05-11T11:24:10.824Z,9.73
2019-05-11T11:26:42.314Z,11.00
2019-05-11T11:29:13.824Z,11.22
2019-05-11T11:31:45.329Z,8.80
2019-05-11T11:34:18.857Z,9.50
2019-05-11T11:36:49.931Z,9.55
2019-05-11T11:39:21.448Z,8.13
2019-05-11T11:41:52.954Z,8.10
2019-05-11T11:44:24.481Z,8.33
2019-05-11T11:46:58.777Z,8.20
2019-05-11T11:49:29.060Z,8.85
2019-05-11T11:52:00.611Z,9.50
2019-05-11T11:54:31.987Z,8.55
2019-05-11T11:57:03.575Z,9.65
2019-05-11T11:59:34.954Z,7.40
2019-05-11T12:02:08.554Z,8.95
2019-05-11T12:04:40.364Z,9.63
2019-05-11T12:07:11.869Z,11.25
2019-05-11T12:09:43.377Z,10.48
2019-05-11T12:12:18.527Z,9.20
2019-05-11T12:14:49.730Z,9.33
2019-05-11T12:17:21.230Z,10.18
2019-05-11T12:19:52.605Z,10.10
2019-05-11T12:22:24.019Z,10.48
2019-05-11T12:24:55.538Z,9.88
2019-05-11T12:27:28.730Z,10.55
2019-05-11T12:30:00.351Z,11.30
2019-05-11T12:32:38.313Z,11.93
2019-05-11T12:35:09.299Z,10.45
2019-05-11T12:37:40.891Z,10.58
2019-05-11T12:40:13.529Z,10.23
2019-05-11T12:42:45.059Z,9.95
2019-05-11T12:45:18.208Z,10.43
2019-05-11T12:47:49.915Z,9.38
2019-05-11T12:50:22.425Z,10.20
2019-05-11T12:52:56.000Z,9.40
2019-05-11T12:55:28.704Z,10.05
2019-05-11T12:58:00.463Z,9.25
2019-05-11T13:00:31.976Z,11.25
2019-05-11T13:03:03.515Z,11.50
2019-05-11T13:05:35.021Z,11.97
2019-05-11T13:08:07.948Z,12.47
2019-05-11T13:10:39.759Z,15.32
2019-05-11T13:13:11.259Z,14.03
2019-05-11T13:15:42.657Z,12.33
2019-05-11T13:18:14.155Z,12.70
2019-05-11T13:20:48.254Z,13.30
2019-05-11T13:23:19.924Z,13.13
2019-05-11T13:25:51.430Z,14.05
2019-05-11T13:28:22.932Z,15.18
2019-05-11T13:30:54.421Z,13.95
2019-05-11T13:33:27.809Z,15.18
2019-05-11T13:35:58.862Z,13.72
2019-05-11T13:38:30.364Z,13.10
2019-05-11T13:41:01.864Z,14.90
2019-05-11T13:43:33.406Z,15.38
2019-05-11T13:46:04.894Z,13.45
2019-05-11T13:48:38.579Z,14.75
2019-05-11T13:51:09.705Z,15.75
2019-05-11T13:53:41.186Z,15.35
2019-05-11T13:56:12.684Z,15.60
2019-05-11T13:58:45.447Z,14.35
2019-05-11T14:01:18.415Z,15.70
2019-05-11T14:03:50.149Z,13.88
2019-05-11T14:06:21.545Z,14.75
2019-05-11T14:08:53.058Z,14.45
2019-05-11T14:11:24.649Z,26.55
2019-05-11T14:13:57.898Z,15.65
2019-05-11T14:16:29.431Z,14.05
2019-05-11T14:19:01.353Z,13.75
2019-05-11T14:21:32.967Z,14.35
2019-05-11T14:24:04.598Z,15.93
2019-05-11T14:26:38.389Z,13.38
2019-05-11T14:29:09.381Z,14.87
2019-05-11T14:31:41.010Z,14.85
2019-05-11T14:34:13.433Z,15.20
2019-05-11T14:36:44.868Z,14.68
2019-05-11T14:39:18.777Z,15.70
2019-05-11T14:41:49.557Z,13.98
2019-05-11T14:44:20.971Z,12.60
2019-05-11T14:46:52.558Z,12.28
2019-05-11T14:49:24.098Z,12.15
2019-05-11T14:51:57.731Z,10.80
2019-05-11T14:54:29.708Z,10.68
2019-05-11T14:57:01.129Z,10.93
2019-05-11T14:59:32.642Z,10.95
2019-05-11T15:02:08.670Z,10.75
2019-05-11T15:07:10.849Z,10.05
2019-05-11T15:09:42.423Z,9.90
2019-05-11T15:12:13.923Z,9.53
2019-05-11T15:14:45.432Z,10.48
2019-05-11T15:17:18.616Z,9.75
2019-05-11T15:19:50.241Z,10.40
2019-05-11T15:22:22.799Z,9.83
2019-05-11T15:24:54.381Z,9.63
2019-05-11T15:27:28.837Z,9.55
2019-05-11T15:30:00.071Z,10.28
2019-05-11T15:32:31.664Z,9.28
2019-05-11T15:35:03.109Z,8.98
2019-05-11T15:37:34.568Z,9.05
2019-05-11T15:40:14.995Z,7.90
2019-05-11T15:42:48.618Z,9.03
2019-05-11T15:45:20.198Z,8.83
2019-05-11T15:47:51.710Z,8.25
2019-05-11T15:50:23.334Z,10.55
2019-05-11T15:52:54.829Z,7.60
2019-05-11T15:55:27.883Z,15.40
2019-05-11T15:57:59.379Z,8.85
2019-05-11T16:00:32.042Z,8.05
2019-05-11T16:03:03.648Z,8.33
2019-05-11T16:05:35.200Z,9.60
2019-05-11T16:08:08.306Z,14.23
2019-05-11T16:10:40.193Z,8.30
2019-05-11T16:13:11.598Z,9.03
2019-05-11T16:15:43.326Z,10.10
2019-05-11T16:18:15.776Z,9.43
2019-05-11T16:20:49.930Z,9.90
2019-05-11T16:23:21.541Z,20.62
2019-05-11T16:25:53.047Z,13.00
2019-05-11T16:28:27.702Z,10.70
2019-05-11T16:30:58.393Z,9.98
2019-05-11T16:33:30.244Z,11.97
2019-05-11T16:36:01.811Z,12.07
2019-05-11T16:38:33.425Z,11.57
2019-05-11T16:41:04.932Z,10.50
2019-05-11T16:43:38.352Z,11.38
2019-05-11T16:46:09.630Z,11.70
2019-05-11T16:48:41.005Z,11.03
2019-05-11T16:51:12.595Z,11.00
2019-05-11T16:53:44.228Z,11.95
2019-05-11T16:56:15.772Z,12.07
2019-05-11T16:58:48.494Z,12.75
2019-05-11T17:01:20.098Z,13.00
2019-05-11T17:03:51.612Z,13.38
2019-05-11T17:06:23.080Z,14.00
2019-05-11T17:08:54.502Z,21.35
2019-05-11T17:11:25.915Z,21.73
2019-05-11T17:13:57.636Z,17.32
2019-05-11T17:16:29.128Z,17.70
2019-05-11T17:19:00.594Z,16.77
2019-05-11T17:21:32.095Z,14.75
2019-05-11T17:24:03.437Z,14.18
2019-05-11T17:26:35.068Z,14.38
2019-05-11T17:29:06.609Z,13.15
2019-05-11T17:31:38.271Z,13.68
2019-05-11T17:34:10.222Z,13.88
2019-05-11T17:36:41.716Z,13.20
2019-05-11T17:39:13.291Z,14.85
2019-05-11T17:41:47.977Z,15.70
2019-05-11T17:44:19.514Z,16.25
2019-05-11T17:46:50.995Z,19.07
2019-05-11T17:49:22.397Z,28.62
2019-05-11T17:51:53.842Z,20.90
2019-05-11T17:54:25.341Z,20.62
2019-05-11T17:56:57.795Z,15.63
2019-05-11T17:59:29.543Z,18.12
2019-05-11T18:02:01.197Z,17.30
2019-05-11T18:04:32.910Z,17.80
2019-05-11T18:07:04.493Z,18.10
2019-05-11T18:09:37.945Z,19.30
2019-05-11T18:12:09.847Z,18.15
2019-05-11T18:14:41.661Z,17.73
2019-05-11T18:17:13.161Z,18.80
2019-05-11T18:19:44.706Z,18.65
2019-05-11T18:22:17.814Z,20.17
2019-05-11T18:24:49.371Z,24.80
2019-05-11T18:27:20.834Z,21.73
2019-05-11T18:29:52.388Z,19.87
2019-05-11T18:32:23.847Z,17.80
2019-05-11T18:34:55.262Z,19.02
2019-05-11T18:37:28.058Z,18.02
2019-05-11T18:39:59.664Z,17.12
2019-05-11T18:42:31.180Z,17.12
2019-05-11T18:45:02.659Z,15.60
2019-05-11T18:47:34.140Z,14.70
2019-05-11T18:50:06.104Z,14.30
2019-05-11T18:52:37.694Z,15.20
2019-05-11T18:55:09.205Z,15.78
2019-05-11T18:57:40.808Z,17.57
2019-05-11T19:00:12.464Z,19.17
2019-05-11T19:02:43.963Z,16.40
2019-05-11T19:05:17.985Z,16.15
2019-05-11T19:07:49.781Z,17.25
2019-05-11T19:10:22.158Z,19.32
2019-05-11T19:12:53.594Z,21.15
2019-05-11T19:15:25.083Z,18.70
2019-05-11T19:17:58.059Z,16.67
2019-05-11T19:20:44.241Z,17.05
2019-05-11T19:23:02.709Z,16.25
2019-05-11T19:25:34.178Z,19.75
2019-05-11T19:28:08.324Z,21.33
2019-05-11T19:30:38.827Z,18.02
2019-05-11T19:33:11.218Z,18.15
2019-05-11T19:35:42.951Z,20.57
2019-05-11T19:38:14.476Z,18.75
2019-05-11T19:40:47.884Z,21.60
2019-05-11T19:43:19.172Z,21.45
2019-05-11T19:45:50.581Z,20.52
2019-05-11T19:48:22.171Z,20.27
2019-05-11T19:51:04.616Z,20.45
2019-05-11T19:53:28.105Z,20.65
2019-05-11T19:55:59.648Z,19.70
2019-05-11T19:58:31.063Z,18.07
2019-05-11T20:01:02.435Z,19.95
2019-05-11T20:03:33.939Z,21.05
2019-05-11T20:06:05.313Z,22.98
2019-05-11T20:08:36.812Z,20.80
2019-05-11T20:11:09.285Z,22.60
2019-05-11T20:13:40.707Z,21.93
2019-05-11T20:16:12.105Z,21.75
2019-05-11T20:18:43.590Z,21.75
2019-05-11T20:21:19.573Z,21.20
2019-05-11T20:23:48.575Z,19.70
2019-05-11T20:26:20.131Z,19.02
2019-05-11T20:28:51.764Z,18.45
2019-05-11T20:31:23.162Z,18.25
2019-05-11T20:33:54.652Z,19.17
2019-05-11T20:36:26.138Z,18.42
2019-05-11T20:38:57.618Z,18.80
2019-05-11T20:41:29.080Z,16.62
2019-05-11T20:44:00.638Z,15.90
2019-05-11T20:46:32.009Z,15.90
2019-05-11T20:49:03.539Z,16.87
2019-05-11T20:51:37.211Z,16.23
2019-05-11T20:54:08.790Z,17.55
2019-05-11T20:56:40.517Z,17.35
2019-05-11T20:59:12.301Z,17.37
2019-05-11T21:01:43.861Z,17.70
2019-05-11T21:04:15.288Z,18.00
2019-05-11T21:06:47.522Z,18.82
2019-05-11T21:09:20.147Z,18.67
2019-05-11T21:11:51.566Z,19.02
2019-05-11T21:14:23.072Z,19.25
2019-05-11T21:16:54.439Z,19.10
2019-05-11T21:19:28.211Z,19.20
2019-05-11T21:21:59.219Z,19.98
2019-05-11T21:24:30.735Z,21.07
2019-05-11T21:27:02.236Z,20.23
2019-05-11T21:29:33.687Z,19.67
2019-05-11T21:32:05.138Z,20.57
2019-05-11T21:34:38.363Z,18.77
2019-05-11T21:37:09.736Z,19.35
2019-05-11T21:39:41.330Z,18.30
2019-05-11T21:42:13.850Z,19.42
2019-05-11T21:44:45.363Z,20.65
2019-05-11T21:47:18.337Z,20.88
2019-05-11T21:49:49.886Z,22.60
2019-05-11T21:52:21.291Z,22.58
2019-05-11T21:54:52.800Z,22.30
2019-05-11T21:57:24.201Z,22.58
2019-05-11T21:59:57.417Z,21.97
2019-05-11T22:02:28.906Z,22.98
2019-05-11T22:05:03.138Z,21.85
2019-05-11T22:07:35.222Z,22.00
2019-05-11T22:10:09.031Z,21.42
2019-05-11T22:12:40.526Z,22.40
2019-05-11T22:15:12.426Z,22.07
2019-05-11T22:17:43.883Z,21.77
2019-05-11T22:20:15.328Z,21.70
2019-05-11T22:22:47.631Z,20.02
2019-05-11T22:25:19.265Z,19.40
2019-05-11T22:27:52.359Z,19.92
2019-05-11T22:30:23.795Z,19.57
2019-05-11T22:32:55.243Z,20.57
2019-05-11T22:35:28.626Z,23.80
2019-05-11T22:37:59.795Z,24.02
2019-05-11T22:40:31.281Z,22.65
2019-05-11T22:43:02.686Z,20.50
2019-05-11T22:45:34.164Z,21.30
2019-05-11T22:48:07.824Z,18.85
2019-05-11T22:50:38.917Z,20.20
2019-05-11T22:53:11.547Z,19.23
2019-05-11T22:55:43.240Z,19.45
2019-05-11T22:58:14.658Z,20.08
2019-05-11T23:00:46.662Z,21.82
2019-05-11T23:03:18.858Z,23.05
2019-05-11T23:05:51.413Z,23.60
2019-05-11T23:08:22.724Z,22.35
2019-05-11T23:10:55.675Z,20.70
2019-05-11T23:13:27.889Z,20.02
2019-05-11T23:15:59.696Z,21.48
2019-05-11T23:18:31.177Z,20.57
2019-05-11T23:21:02.646Z,20.77
2019-05-11T23:23:34.069Z,20.82
2019-05-11T23:26:05.523Z,23.55
2019-05-11T23:28:37.876Z,22.15
2019-05-11T23:31:09.543Z,22.40
2019-05-11T23:33:40.841Z,26.02
2019-05-11T23:36:12.268Z,24.47
2019-05-11T23:38:43.629Z,24.57
2019-05-11T23:41:24.253Z,25.40
2019-05-11T23:43:48.327Z,22.60
2019-05-11T23:46:19.849Z,24.52
2019-05-11T23:48:51.329Z,23.52
2019-05-11T23:51:22.827Z,23.55
2019-05-11T23:53:55.355Z,23.98
2019-05-11T23:56:28.155Z,25.17
2019-05-11T23:58:59.792Z,25.57
